createdAt,value
2023-03-17T00:01:54.565Z,45.19
2023-03-17T00:04:25.140Z,45.33
2023-03-17T00:06:55.616Z,45.95
2023-03-17T00:09:23.794Z,44.85
2023-03-17T00:11:51.888Z,45.24
2023-03-17T00:14:20.731Z,45.30
2023-03-17T00:16:50.854Z,44.92
2023-03-17T00:19:31.105Z,44.74
2023-03-17T00:22:01.517Z,44.75
2023-03-17T00:24:29.953Z,45.23
2023-03-17T00:26:58.169Z,44.72
2023-03-17T00:29:26.986Z,45.67
2023-03-17T00:31:56.404Z,44.99
2023-03-17T00:34:24.527Z,45.68
2023-03-17T00:36:53.492Z,45.65
2023-03-17T00:39:24.350Z,45.13
2023-03-17T00:41:52.667Z,45.93
2023-03-17T00:44:20.628Z,45.88
2023-03-17T00:46:48.769Z,45.77
2023-03-17T00:49:19.185Z,46.17
2023-03-17T00:51:47.947Z,45.67
2023-03-17T00:54:16.912Z,46.31
2023-03-17T00:56:47.320Z,46.68
2023-03-17T00:59:22.882Z,46.10
2023-03-17T01:01:51.250Z,46.97
2023-03-17T01:04:19.738Z,46.84
2023-03-17T01:06:48.369Z,46.97
2023-03-17T01:09:18.623Z,46.93
2023-03-17T01:11:48.783Z,47.09
2023-03-17T01:14:17.453Z,46.39
2023-03-17T01:16:45.806Z,47.05
2023-03-17T01:19:15.030Z,47.11
2023-03-17T01:21:43.116Z,46.45
2023-03-17T01:24:11.163Z,46.30
2023-03-17T01:26:39.256Z,46.49
2023-03-17T01:29:09.261Z,46.55
2023-03-17T01:31:37.491Z,46.83
2023-03-17T01:34:06.257Z,47.11
2023-03-17T01:36:34.412Z,46.99
2023-03-17T01:39:03.457Z,47.06
2023-03-17T01:41:34.821Z,46.86
2023-03-17T01:44:03.003Z,46.33
2023-03-17T01:46:34.243Z,46.20
2023-03-17T01:49:10.136Z,47.37
2023-03-17T01:51:44.221Z,47.15
2023-03-17T01:54:19.327Z,46.33
2023-03-17T01:56:51.838Z,46.96
2023-03-17T01:59:23.771Z,46.60
2023-03-17T02:01:58.602Z,46.68
2023-03-17T02:04:27.217Z,46.32
2023-03-17T02:06:58.278Z,47.10
2023-03-17T02:09:27.805Z,47.10
2023-03-17T02:11:57.649Z,46.96
2023-03-17T02:14:25.663Z,47.25
2023-03-17T02:16:55.462Z,46.93
2023-03-17T02:19:23.474Z,47.39
2023-03-17T02:21:55.396Z,46.73
2023-03-17T02:24:30.049Z,46.62
2023-03-17T02:27:02.323Z,47.73
2023-03-17T02:29:33.821Z,47.14
2023-03-17T02:32:02.353Z,47.60
2023-03-17T02:34:31.612Z,47.41
2023-03-17T02:37:01.310Z,47.28
2023-03-17T02:39:29.250Z,47.29
2023-03-17T02:41:57.417Z,47.85
2023-03-17T02:44:25.967Z,48.00
2023-03-17T02:46:54.127Z,48.59
2023-03-17T02:49:22.807Z,48.52
2023-03-17T02:51:50.823Z,48.08
2023-03-17T02:54:20.373Z,47.60
2023-03-17T02:56:48.442Z,48.54
2023-03-17T02:59:16.460Z,47.53
2023-03-17T03:01:44.563Z,48.74
2023-03-17T03:04:13.492Z,48.17
2023-03-17T03:06:42.661Z,48.23
2023-03-17T03:09:11.888Z,48.59
2023-03-17T03:11:42.710Z,48.72
2023-03-17T03:14:11.824Z,47.54
2023-03-17T03:16:40.361Z,47.96
2023-03-17T03:19:09.157Z,47.54
2023-03-17T03:21:37.811Z,48.49
2023-03-17T03:24:07.268Z,48.35
2023-03-17T03:26:35.271Z,48.29
2023-03-17T03:29:04.930Z,49.10
2023-03-17T03:31:33.127Z,48.46
2023-03-17T03:34:01.147Z,48.33
2023-03-17T03:36:29.156Z,48.07
2023-03-17T03:38:58.046Z,48.94
2023-03-17T03:41:26.344Z,48.98
2023-03-17T03:43:54.543Z,48.84
2023-03-17T03:46:23.993Z,48.96
2023-03-17T03:48:52.029Z,48.25
2023-03-17T03:51:20.143Z,48.05
2023-03-17T03:53:48.378Z,48.68
2023-03-17T03:56:16.707Z,47.79
2023-03-17T03:58:44.705Z,48.17
2023-03-17T04:01:13.388Z,48.35
2023-03-17T04:03:42.801Z,48.74
2023-03-17T04:06:11.467Z,47.85
2023-03-17T04:08:39.509Z,48.58
2023-03-17T04:11:07.642Z,47.84
2023-03-17T04:13:36.078Z,49.04
2023-03-17T04:16:04.049Z,48.51
2023-03-17T04:18:32.202Z,47.92
2023-03-17T04:21:01.689Z,47.83
2023-03-17T04:23:31.527Z,48.50
2023-03-17T04:25:59.679Z,48.14
2023-03-17T04:28:27.738Z,48.15
2023-03-17T04:30:56.320Z,48.80
2023-03-17T04:33:24.420Z,49.25
2023-03-17T04:35:52.555Z,48.08
2023-03-17T04:38:22.152Z,48.44
2023-03-17T04:40:51.854Z,48.33
2023-03-17T04:43:19.820Z,47.78
2023-03-17T04:45:47.877Z,48.97
2023-03-17T04:48:16.004Z,48.23
2023-03-17T04:50:45.624Z,47.74
2023-03-17T04:53:13.914Z,47.95
2023-03-17T04:55:43.237Z,48.33
2023-03-17T04:58:15.502Z,48.53
2023-03-17T05:00:49.326Z,47.65
2023-03-17T05:03:26.613Z,48.95
2023-03-17T05:05:55.593Z,48.76
2023-03-17T05:08:23.652Z,48.55
2023-03-17T05:10:53.315Z,48.13
2023-03-17T05:13:21.345Z,49.00
2023-03-17T05:15:50.256Z,47.88
2023-03-17T05:18:18.870Z,49.21
2023-03-17T05:20:47.030Z,48.75
2023-03-17T05:23:15.255Z,48.29
2023-03-17T05:25:43.236Z,49.33
2023-03-17T05:28:13.399Z,48.06
2023-03-17T05:30:41.639Z,48.73
2023-03-17T05:33:10.229Z,48.97
2023-03-17T05:35:38.408Z,48.67
2023-03-17T05:38:06.933Z,49.05
2023-03-17T05:40:35.549Z,48.87
2023-03-17T05:43:04.111Z,48.94
2023-03-17T05:45:34.002Z,48.39
2023-03-17T05:48:02.171Z,48.94
2023-03-17T05:50:31.020Z,48.29
2023-03-17T05:52:59.146Z,48.63
2023-03-17T05:55:27.336Z,48.20
2023-03-17T05:57:55.339Z,49.54
2023-03-17T06:00:23.729Z,48.57
2023-03-17T06:02:53.166Z,48.94
2023-03-17T06:05:21.410Z,48.84
2023-03-17T06:07:54.906Z,49.45
2023-03-17T06:10:24.843Z,48.98
2023-03-17T06:12:53.065Z,48.86
2023-03-17T06:15:21.400Z,48.79
2023-03-17T06:17:49.542Z,49.18
2023-03-17T06:20:19.502Z,48.19
2023-03-17T06:23:02.656Z,48.22
2023-03-17T06:25:32.131Z,47.83
2023-03-17T06:28:02.692Z,48.81
2023-03-17T06:30:31.430Z,48.33
2023-03-17T06:33:00.304Z,48.60
2023-03-17T06:35:30.403Z,48.25
2023-03-17T06:37:58.773Z,48.24
2023-03-17T06:40:26.783Z,48.91
2023-03-17T06:42:54.860Z,48.13
2023-03-17T06:45:22.905Z,48.85
2023-03-17T06:47:50.964Z,47.79
2023-03-17T06:50:19.682Z,48.97
2023-03-17T06:52:49.101Z,47.52
2023-03-17T06:55:17.645Z,47.81
2023-03-17T06:57:45.883Z,47.77
2023-03-17T07:00:16.005Z,48.27
2023-03-17T07:02:44.289Z,46.86
2023-03-17T07:05:14.019Z,47.56
2023-03-17T07:07:42.738Z,46.59
2023-03-17T07:10:15.942Z,46.65
2023-03-17T07:12:44.246Z,46.45
2023-03-17T07:15:13.743Z,46.63
2023-03-17T07:17:42.207Z,46.11
2023-03-17T07:20:11.730Z,46.29
2023-03-17T07:22:39.858Z,46.24
2023-03-17T07:25:09.816Z,45.86
2023-03-17T07:27:39.497Z,45.54
2023-03-17T07:30:09.605Z,45.40
2023-03-17T07:32:37.974Z,45.00
2023-03-17T07:35:07.416Z,45.25
2023-03-17T07:37:35.656Z,44.94
2023-03-17T07:40:03.738Z,44.77
2023-03-17T07:42:31.806Z,44.54
2023-03-17T07:45:01.250Z,44.56
2023-03-17T07:47:29.309Z,44.04
2023-03-17T07:49:57.366Z,43.60
2023-03-17T07:52:25.364Z,40.86
2023-03-17T07:54:53.996Z,38.65
2023-03-17T07:57:22.333Z,36.85
2023-03-17T07:59:50.844Z,35.83
2023-03-17T08:02:22.283Z,34.11
2023-03-17T08:04:51.129Z,33.41
2023-03-17T08:07:19.563Z,32.79
2023-03-17T08:09:47.882Z,31.86
2023-03-17T08:12:16.536Z,31.28
2023-03-17T08:14:44.634Z,30.71
2023-03-17T08:17:13.630Z,30.16
2023-03-17T08:19:43.197Z,30.29
2023-03-17T08:22:12.544Z,30.38
2023-03-17T08:24:43.078Z,30.00
2023-03-17T08:27:11.266Z,29.70
2023-03-17T08:29:39.731Z,28.86
2023-03-17T08:32:08.980Z,28.87
2023-03-17T08:34:37.112Z,28.95
2023-03-17T08:37:10.045Z,29.73
2023-03-17T08:39:39.514Z,29.88
2023-03-17T08:42:08.381Z,30.15
2023-03-17T08:44:36.439Z,29.66
2023-03-17T08:47:04.821Z,29.86
2023-03-17T08:49:35.098Z,29.47
2023-03-17T08:52:03.582Z,28.64
2023-03-17T08:54:33.069Z,27.76
2023-03-17T08:57:01.865Z,26.93
2023-03-17T08:59:30.217Z,26.44
2023-03-17T09:01:58.308Z,25.78
2023-03-17T09:04:26.695Z,25.68
2023-03-17T09:07:03.419Z,26.06
2023-03-17T09:09:34.691Z,26.19
2023-03-17T09:12:03.207Z,26.54
2023-03-17T09:14:42.635Z,26.20
2023-03-17T09:17:12.015Z,26.11
2023-03-17T09:19:40.535Z,26.22
2023-03-17T09:22:09.235Z,25.14
2023-03-17T09:24:38.645Z,24.66
2023-03-17T09:27:07.206Z,23.36
2023-03-17T09:29:35.743Z,22.93
2023-03-17T09:32:03.862Z,22.52
2023-03-17T09:34:31.998Z,22.33
2023-03-17T09:37:00.841Z,20.67
2023-03-17T09:39:28.963Z,20.07
2023-03-17T09:42:13.281Z,19.14
2023-03-17T09:44:56.988Z,17.86
2023-03-17T09:48:04.791Z,16.40
2023-03-17T09:50:40.324Z,15.34
2023-03-17T09:53:18.185Z,14.46
2023-03-17T09:55:49.394Z,13.75
2023-03-17T09:58:26.158Z,13.07
2023-03-17T10:00:54.189Z,12.42
2023-03-17T10:03:22.395Z,11.98
2023-03-17T10:05:50.530Z,11.44
2023-03-17T10:08:31.181Z,10.70
2023-03-17T10:11:11.049Z,10.40
2023-03-17T10:13:54.972Z,10.10
2023-03-17T10:16:38.259Z,9.48
2023-03-17T10:19:17.578Z,9.07
2023-03-17T10:21:53.691Z,8.69
2023-03-17T10:24:23.058Z,8.67
2023-03-17T10:26:53.388Z,8.72
2023-03-17T10:29:24.550Z,8.48
2023-03-17T10:31:55.218Z,8.49
2023-03-17T10:34:27.703Z,8.31
2023-03-17T10:36:57.617Z,8.04
2023-03-17T10:39:25.808Z,7.69
2023-03-17T10:41:57.602Z,7.60
2023-03-17T10:44:46.178Z,7.35
2023-03-17T10:47:24.271Z,7.19
2023-03-17T10:49:52.651Z,7.83
2023-03-17T10:52:23.995Z,8.38
2023-03-17T10:54:52.738Z,8.14
2023-03-17T10:57:21.520Z,7.66
2023-03-17T10:59:53.853Z,7.20
2023-03-17T11:02:27.052Z,6.80
2023-03-17T11:04:59.822Z,6.13
2023-03-17T11:07:32.466Z,5.70
2023-03-17T11:10:04.388Z,5.66
2023-03-17T11:12:37.262Z,5.27
2023-03-17T11:15:11.574Z,5.16
2023-03-17T11:17:44.184Z,5.26
2023-03-17T11:20:37.272Z,5.22
2023-03-17T11:23:12.126Z,5.54
2023-03-17T11:25:44.110Z,5.96
2023-03-17T11:28:20.390Z,6.40
2023-03-17T11:31:06.589Z,7.98
2023-03-17T11:33:39.491Z,9.41
2023-03-17T11:36:20.069Z,11.62
2023-03-17T11:38:58.530Z,13.68
2023-03-17T11:41:46.556Z,14.84
2023-03-17T11:44:42.196Z,16.25
2023-03-17T11:47:23.055Z,16.87
2023-03-17T11:50:02.312Z,18.03
2023-03-17T11:52:37.255Z,18.41
2023-03-17T11:55:14.569Z,19.02
2023-03-17T11:57:48.330Z,19.04
2023-03-17T12:00:25.191Z,19.18
2023-03-17T12:03:00.338Z,19.21
2023-03-17T12:05:30.096Z,19.02
2023-03-17T12:08:00.790Z,18.92
2023-03-17T12:10:34.876Z,19.84
2023-03-17T12:13:08.194Z,19.99
2023-03-17T12:15:41.783Z,20.24
2023-03-17T12:18:17.424Z,20.37
2023-03-17T12:20:52.828Z,20.17
2023-03-17T12:23:30.520Z,20.71
2023-03-17T12:26:03.910Z,21.52
2023-03-17T12:28:37.717Z,21.60
2023-03-17T12:31:09.062Z,22.21
2023-03-17T12:33:45.329Z,22.10
2023-03-17T12:36:17.007Z,22.57
2023-03-17T12:38:49.995Z,23.21
2023-03-17T12:41:44.175Z,23.74
2023-03-17T12:44:27.625Z,23.42
2023-03-17T12:47:12.959Z,23.85
2023-03-17T12:50:05.891Z,23.66
2023-03-17T12:52:48.532Z,23.87
2023-03-17T12:55:18.799Z,24.08
2023-03-17T12:57:48.972Z,24.31
2023-03-17T13:00:24.671Z,25.04
2023-03-17T13:03:08.946Z,24.65
2023-03-17T13:05:38.607Z,24.76
2023-03-17T13:08:11.088Z,24.84
2023-03-17T13:10:42.747Z,25.44
2023-03-17T13:13:23.327Z,25.67
2023-03-17T13:15:59.651Z,25.34
2023-03-17T13:18:48.151Z,25.91
2023-03-17T13:21:19.299Z,25.83
2023-03-17T13:23:49.439Z,25.39
2023-03-17T13:26:21.386Z,25.67
2023-03-17T13:28:51.197Z,25.45
2023-03-17T13:31:37.211Z,26.10
2023-03-17T13:34:15.307Z,25.57
2023-03-17T13:36:53.988Z,25.39
2023-03-17T13:40:01.313Z,25.70
2023-03-17T13:42:44.648Z,25.15
2023-03-17T13:45:25.043Z,25.09
2023-03-17T13:47:55.293Z,24.84
2023-03-17T13:50:26.435Z,25.23
2023-03-17T13:52:58.773Z,25.25
2023-03-17T13:55:38.110Z,25.38
2023-03-17T13:58:27.658Z,25.71
2023-03-17T14:01:03.886Z,25.34
2023-03-17T14:03:38.941Z,25.72
2023-03-17T14:06:09.890Z,25.63
2023-03-17T14:08:44.470Z,25.53
2023-03-17T14:11:22.683Z,25.91
2023-03-17T14:14:01.057Z,25.76
2023-03-17T14:16:33.275Z,26.42
2023-03-17T14:19:12.414Z,26.46
2023-03-17T14:21:40.897Z,26.58
2023-03-17T14:24:21.280Z,26.52
2023-03-17T14:26:50.432Z,26.90
2023-03-17T14:29:21.390Z,27.06
2023-03-17T14:31:50.888Z,26.76
2023-03-17T14:34:22.806Z,27.12
2023-03-17T14:36:52.767Z,27.09
2023-03-17T14:39:25.909Z,27.19
2023-03-17T14:42:03.462Z,27.07
2023-03-17T14:44:38.274Z,27.38
2023-03-17T14:47:13.902Z,27.20
2023-03-17T14:49:41.957Z,27.27
2023-03-17T14:52:22.551Z,27.42
2023-03-17T14:54:54.723Z,27.42
2023-03-17T14:57:24.775Z,27.48
2023-03-17T15:00:00.950Z,27.42
2023-03-17T15:02:34.326Z,27.59
2023-03-17T15:05:06.781Z,27.51
2023-03-17T15:07:39.784Z,27.92
2023-03-17T15:10:17.107Z,28.10
2023-03-17T15:12:47.380Z,28.09
2023-03-17T15:15:24.051Z,28.28
2023-03-17T15:17:53.535Z,28.36
2023-03-17T15:20:21.946Z,28.30
2023-03-17T15:22:57.099Z,28.57
2023-03-17T15:25:29.290Z,28.44
2023-03-17T15:27:57.472Z,28.04
2023-03-17T15:30:29.443Z,28.27
2023-03-17T15:33:02.448Z,28.30
2023-03-17T15:35:30.856Z,28.54
2023-03-17T15:37:58.972Z,28.30
2023-03-17T15:40:28.544Z,28.27
2023-03-17T15:42:57.315Z,28.58
2023-03-17T15:45:25.535Z,28.48
2023-03-17T15:47:53.660Z,28.42
2023-03-17T15:50:25.624Z,28.40
2023-03-17T15:52:56.053Z,28.52
2023-03-17T15:55:25.317Z,28.32
2023-03-17T15:57:56.561Z,28.30
2023-03-17T16:00:26.653Z,28.21
2023-03-17T16:02:56.343Z,28.46
2023-03-17T16:05:26.304Z,28.39
2023-03-17T16:07:54.915Z,28.48
2023-03-17T16:10:25.623Z,28.59
2023-03-17T16:12:55.577Z,28.91
2023-03-17T16:15:26.202Z,28.57
2023-03-17T16:17:56.737Z,28.39
2023-03-17T16:20:27.282Z,28.53
2023-03-17T16:22:58.682Z,28.81
2023-03-17T16:25:28.411Z,28.72
2023-03-17T16:27:59.816Z,28.68
2023-03-17T16:30:31.494Z,29.08
2023-03-17T16:33:03.378Z,28.65
2023-03-17T16:35:31.564Z,28.76
2023-03-17T16:37:59.624Z,29.31
2023-03-17T16:40:30.586Z,29.18
2023-03-17T16:43:00.226Z,29.52
2023-03-17T16:45:32.758Z,29.49
2023-03-17T16:48:02.312Z,29.24
2023-03-17T16:50:33.304Z,29.61
2023-03-17T16:53:01.601Z,29.75
2023-03-17T16:55:30.451Z,30.13
2023-03-17T16:58:04.244Z,29.74
2023-03-17T17:00:33.343Z,30.28
2023-03-17T17:03:01.980Z,30.66
2023-03-17T17:05:31.278Z,30.83
2023-03-17T17:07:59.977Z,31.15
2023-03-17T17:10:30.467Z,30.82
2023-03-17T17:13:00.352Z,30.90
2023-03-17T17:15:29.066Z,31.12
2023-03-17T17:18:00.751Z,31.26
2023-03-17T17:20:30.977Z,31.21
2023-03-17T17:22:59.612Z,31.84
2023-03-17T17:25:28.279Z,31.39
2023-03-17T17:27:56.969Z,31.67
2023-03-17T17:30:28.915Z,32.02
2023-03-17T17:32:59.180Z,32.26
2023-03-17T17:35:30.717Z,32.08
2023-03-17T17:38:00.723Z,31.84
2023-03-17T17:40:29.438Z,32.34
2023-03-17T17:42:57.928Z,32.11
2023-03-17T17:45:27.423Z,31.97
2023-03-17T17:47:55.488Z,32.70
2023-03-17T17:50:26.743Z,32.85
2023-03-17T17:52:55.081Z,32.67
2023-03-17T17:55:23.131Z,33.07
2023-03-17T17:57:52.590Z,33.66
2023-03-17T18:00:21.758Z,33.41
2023-03-17T18:02:51.250Z,33.50
2023-03-17T18:05:19.251Z,33.44
2023-03-17T18:07:47.230Z,33.37
2023-03-17T18:10:18.699Z,33.90
2023-03-17T18:12:46.775Z,33.59
2023-03-17T18:15:14.776Z,33.32
2023-03-17T18:17:43.230Z,33.87
2023-03-17T18:20:16.370Z,33.63
2023-03-17T18:22:44.565Z,33.44
2023-03-17T18:25:14.333Z,34.11
2023-03-17T18:27:43.191Z,34.07
2023-03-17T18:30:14.308Z,33.95
2023-03-17T18:32:44.354Z,34.46
2023-03-17T18:35:18.590Z,34.45
2023-03-17T18:37:46.858Z,34.19
2023-03-17T18:40:18.752Z,34.29
2023-03-17T18:42:47.481Z,34.49
2023-03-17T18:45:16.205Z,34.33
2023-03-17T18:47:44.209Z,34.79
2023-03-17T18:50:16.031Z,34.69
2023-03-17T18:52:45.158Z,35.01
2023-03-17T18:55:15.508Z,35.11
2023-03-17T18:57:45.019Z,35.20
2023-03-17T19:00:16.419Z,35.57
2023-03-17T19:02:45.042Z,35.42
2023-03-17T19:05:14.512Z,35.10
2023-03-17T19:07:42.587Z,35.65
2023-03-17T19:10:12.318Z,35.60
2023-03-17T19:12:40.635Z,36.26
2023-03-17T19:15:10.742Z,36.23
2023-03-17T19:17:39.067Z,36.74
2023-03-17T19:20:10.110Z,36.93
2023-03-17T19:22:40.295Z,36.23
2023-03-17T19:25:09.922Z,36.24
2023-03-17T19:27:38.064Z,35.99
2023-03-17T19:30:07.471Z,36.16
2023-03-17T19:32:35.541Z,36.36
2023-03-17T19:35:03.514Z,36.50
2023-03-17T19:37:32.599Z,37.13
2023-03-17T19:40:02.062Z,36.96
2023-03-17T19:42:30.078Z,37.63
2023-03-17T19:44:58.085Z,37.02
2023-03-17T19:47:26.380Z,37.30
2023-03-17T19:49:54.402Z,37.30
2023-03-17T19:52:22.672Z,37.29
2023-03-17T19:54:50.674Z,37.37
2023-03-17T19:57:21.052Z,37.32
2023-03-17T19:59:49.125Z,36.43
2023-03-17T20:02:17.983Z,36.56
2023-03-17T20:04:46.055Z,36.06
2023-03-17T20:07:14.560Z,36.80
2023-03-17T20:09:44.664Z,37.93
2023-03-17T20:12:12.992Z,38.25
2023-03-17T20:14:42.524Z,38.91
2023-03-17T20:17:10.641Z,38.61
2023-03-17T20:19:39.514Z,39.75
2023-03-17T20:22:09.129Z,39.91
2023-03-17T20:24:38.382Z,39.20
2023-03-17T20:27:08.550Z,39.16
2023-03-17T20:29:36.630Z,38.84
2023-03-17T20:32:07.185Z,38.07
2023-03-17T20:34:35.923Z,37.99
2023-03-17T20:37:04.237Z,38.55
2023-03-17T20:39:32.697Z,38.48
2023-03-17T20:42:01.748Z,39.06
2023-03-17T20:44:29.983Z,39.39
2023-03-17T20:46:58.133Z,39.93
2023-03-17T20:49:27.816Z,40.91
2023-03-17T20:51:56.247Z,40.04
2023-03-17T20:54:24.469Z,40.31
2023-03-17T20:56:55.991Z,40.46
2023-03-17T20:59:24.802Z,40.34
2023-03-17T21:01:52.869Z,40.75
2023-03-17T21:04:21.367Z,40.68
2023-03-17T21:06:50.795Z,40.42
2023-03-17T21:09:18.957Z,40.10
2023-03-17T21:11:49.204Z,40.77
2023-03-17T21:14:17.359Z,40.36
2023-03-17T21:16:47.301Z,40.67
2023-03-17T21:19:16.140Z,40.58
2023-03-17T21:21:44.644Z,39.77
2023-03-17T21:24:41.552Z,40.08
2023-03-17T21:27:12.094Z,39.60
2023-03-17T21:29:41.082Z,39.72
2023-03-17T21:32:09.674Z,39.18
2023-03-17T21:34:38.681Z,39.28
2023-03-17T21:37:07.016Z,38.89
2023-03-17T21:39:36.795Z,38.75
2023-03-17T21:42:05.444Z,39.69
2023-03-17T21:44:33.592Z,39.59
2023-03-17T21:47:02.697Z,39.76
2023-03-17T21:49:30.862Z,39.72
2023-03-17T21:51:58.945Z,39.94
2023-03-17T21:54:26.954Z,39.99
2023-03-17T21:56:56.464Z,39.68
2023-03-17T21:59:25.044Z,40.21
2023-03-17T22:01:53.492Z,40.31
2023-03-17T22:04:21.582Z,39.70
2023-03-17T22:06:49.685Z,40.58
2023-03-17T22:09:19.286Z,40.78
2023-03-17T22:11:47.514Z,40.97
2023-03-17T22:14:20.499Z,40.79
2023-03-17T22:16:48.755Z,41.28
2023-03-17T22:19:20.627Z,41.18
2023-03-17T22:21:49.156Z,42.36
2023-03-17T22:24:17.443Z,42.36
2023-03-17T22:26:45.536Z,42.83
2023-03-17T22:29:13.712Z,42.88
2023-03-17T22:31:43.259Z,43.59
2023-03-17T22:34:11.395Z,43.84
2023-03-17T22:36:39.587Z,43.19
2023-03-17T22:39:08.880Z,43.30
2023-03-17T22:41:37.863Z,43.41
2023-03-17T22:44:08.297Z,43.82
2023-03-17T22:46:36.585Z,44.24
2023-03-17T22:49:06.777Z,43.49
2023-03-17T22:51:36.062Z,43.78
2023-03-17T22:54:04.614Z,44.29
2023-03-17T22:56:32.892Z,44.34
2023-03-17T22:59:01.122Z,44.20
2023-03-17T23:01:29.395Z,44.13
2023-03-17T23:03:57.590Z,43.87
2023-03-17T23:06:27.017Z,43.27
2023-03-17T23:08:55.104Z,43.89
2023-03-17T23:11:25.572Z,43.75
2023-03-17T23:13:54.324Z,43.29
2023-03-17T23:16:23.261Z,43.54
2023-03-17T23:18:51.516Z,43.57
2023-03-17T23:21:25.037Z,44.90
2023-03-17T23:23:54.644Z,44.00
2023-03-17T23:26:22.700Z,44.23
2023-03-17T23:28:50.913Z,44.27
2023-03-17T23:31:19.593Z,43.97
2023-03-17T23:33:47.979Z,44.50
2023-03-17T23:36:17.136Z,43.95
2023-03-17T23:38:46.090Z,43.82
2023-03-17T23:41:15.558Z,43.86
2023-03-17T23:43:44.130Z,44.06
2023-03-17T23:46:13.130Z,43.94
2023-03-17T23:48:42.956Z,44.17
2023-03-17T23:51:12.587Z,43.80
2023-03-17T23:53:41.814Z,44.43
2023-03-17T23:56:11.538Z,43.94
2023-03-17T23:58:42.502Z,44.21
